Time;durP1;ratioP1;P1;durP2;ratioP2;P2;SDS_P1;SDS_P2;PMS_P1;PMS_P2;Temp;Humidity;BMP_temperature;BMP_pressure;BME280_temperature;BME280_humidity;BME280_pressure;Samples;Min_cycle;Max_cycle;Signal;HPM_P1;HPM_P2
2022/04/09 00:00:13;;;;;;;;;;;;;;;12.77;100.00;98119.25;5089688;28;19948;-86
2022/04/09 00:02:39;;;;;;;;;;;;;;;12.77;100.00;98114.44;5063108;28;19931;-86
2022/04/09 00:05:05;;;;;;;;;;;;;;;12.55;100.00;98111.53;5070201;28;19920;-86
2022/04/09 00:07:30;;;;;;;;;;;;;;;12.41;100.00;98101.34;5069956;28;19966;-86
2022/04/09 00:09:56;;;;;;;;;;;;;;;12.41;100.00;98102.09;5052607;28;19924;-86
2022/04/09 00:12:21;;;;;;;;;;;;;;;12.39;100.00;98099.03;5068292;28;19925;-86
2022/04/09 00:14:46;;;;;;;;;;;;;;;12.37;100.00;98100.81;5069930;28;20406;-86
2022/04/09 00:17:12;;;;;;;;;;;;;;;12.35;100.00;98095.72;5070522;28;19921;-85
2022/04/09 00:19:37;;;;;;;;;;;;;;;12.34;100.00;98099.00;5073948;28;19921;-85
2022/04/09 00:22:03;;;;;;;;;;;;;;;12.35;100.00;98101.28;5073215;28;20490;-86
2022/04/09 00:24:28;;;;;;;;;;;;;;;12.35;99.72;98092.94;5070482;28;19928;-85
2022/04/09 00:26:54;;;;;;;;;;;;;;;12.38;99.03;98085.63;5070484;28;20003;-86
2022/04/09 00:29:19;;;;;;;;;;;;;;;12.41;98.92;98095.78;5073165;28;19920;-86
2022/04/09 00:31:45;;;;;;;;;;;;;;;12.39;98.42;98082.34;5068964;28;19925;-85
2022/04/09 00:34:11;;;;;;;;;;;;;;;12.44;97.83;98080.88;5071906;28;19981;-86
2022/04/09 00:36:36;;;;;;;;;;;;;;;12.44;97.31;98078.84;5055743;28;19927;-86
2022/04/09 00:39:02;;;;;;;;;;;;;;;12.46;96.81;98081.13;5073615;28;19925;-85
2022/04/09 00:41:29;;;;;;;;;;;;;;;12.45;96.88;98062.94;5054006;28;19929;-86
2022/04/09 00:43:54;;;;;;;;;;;;;;;12.44;96.44;98050.28;5073640;28;19920;-86
2022/04/09 00:46:20;;;;;;;;;;;;;;;12.47;94.74;98061.19;5073365;28;19928;-85
2022/04/09 00:48:45;;;;;;;;;;;;;;;12.49;94.43;98063.47;5073253;28;19935;-86
2022/04/09 00:51:11;;;;;;;;;;;;;;;12.45;93.68;98047.03;5073508;28;20418;-86
2022/04/09 00:53:39;;;;;;;;;;;;;;;12.55;92.73;98055.91;5072991;28;20008;-86
2022/04/09 00:56:15;;;;;;;;;;;;;;;12.57;92.76;98050.63;5054631;28;20518;-85
2022/04/09 00:58:45;;;;;;;;;;;;;;;12.58;92.46;98043.78;5073428;28;19920;-86
2022/04/09 01:04:01;;;;;;;;;;;;;;;12.61;92.35;98038.00;5081219;28;19946;-91
2022/04/09 01:06:27;;;;;;;;;;;;;;;12.63;91.26;98041.03;5075137;28;20388;-92
2022/04/09 01:08:52;;;;;;;;;;;;;;;12.66;90.71;98039.25;5075365;28;19935;-92
2022/04/09 01:11:18;;;;;;;;;;;;;;;12.70;89.65;98039.78;5074766;28;20018;-93
2022/04/09 01:13:44;;;;;;;;;;;;;;;12.69;90.15;98021.59;5091398;28;20369;-92
2022/04/09 01:16:10;;;;;;;;;;;;;;;12.72;90.16;98015.03;5056972;28;19920;-92
2022/04/09 01:18:36;;;;;;;;;;;;;;;12.69;90.29;98020.81;5086064;28;19966;-90
2022/04/09 01:21:05;;;;;;;;;;;;;;;12.63;90.11;98002.09;5057897;28;19965;-94
2022/04/09 01:23:31;;;;;;;;;;;;;;;12.65;89.55;98009.94;5053835;28;19960;-91
2022/04/09 01:25:59;;;;;;;;;;;;;;;12.70;88.88;97997.31;5055605;28;20392;-91
2022/04/09 01:28:25;;;;;;;;;;;;;;;12.68;89.97;98003.38;5054718;28;20015;-92
2022/04/09 01:30:51;;;;;;;;;;;;;;;12.74;88.89;98012.47;5086475;28;20436;-91
2022/04/09 01:33:17;;;;;;;;;;;;;;;12.75;89.29;98007.69;5040691;28;19924;-92
2022/04/09 01:35:42;;;;;;;;;;;;;;;12.77;88.80;98008.72;5055563;28;19921;-93
2022/04/09 01:38:09;;;;;;;;;;;;;;;12.81;87.98;98008.47;5041579;28;20022;-92
2022/04/09 01:40:34;;;;;;;;;;;;;;;12.81;88.68;98003.69;5071308;28;19964;-92
2022/04/09 01:43:00;;;;;;;;;;;;;;;12.80;89.66;98007.72;5042833;28;19920;-92
2022/04/09 01:45:27;;;;;;;;;;;;;;;12.79;88.99;97997.84;5074349;28;20445;-92
2022/04/09 01:47:58;;;;;;;;;;;;;;;12.81;88.73;97989.78;5073251;28;19920;-93
2022/04/09 01:50:26;;;;;;;;;;;;;;;12.82;88.49;97996.84;5073952;28;19974;-92
2022/04/09 01:52:51;;;;;;;;;;;;;;;12.82;89.31;98001.66;5074499;28;19920;-92
2022/04/09 01:55:17;;;;;;;;;;;;;;;12.79;89.65;97992.28;5074253;28;19920;-91
2022/04/09 01:57:45;;;;;;;;;;;;;;;12.70;89.94;97995.28;5056830;28;19920;-92
2022/04/09 02:00:12;;;;;;;;;;;;;;;12.69;90.92;97984.66;5058060;28;19981;-92
2022/04/09 02:02:43;;;;;;;;;;;;;;;12.67;89.51;97984.38;5068405;28;20411;-90
2022/04/09 02:05:13;;;;;;;;;;;;;;;12.81;87.95;97978.63;5053485;28;19927;-91
2022/04/09 02:07:41;;;;;;;;;;;;;;;12.93;87.30;97982.97;5041161;28;19925;-92
2022/04/09 02:10:07;;;;;;;;;;;;;;;13.06;86.13;97983.22;5039197;28;19970;-91
2022/04/09 02:12:36;;;;;;;;;;;;;;;13.20;84.90;97980.75;5014454;28;19947;-91
2022/04/09 02:15:02;;;;;;;;;;;;;;;13.24;85.29;97981.28;5049426;28;20373;-92
2022/04/09 02:17:28;;;;;;;;;;;;;;;13.27;85.40;97985.81;5016792;28;19928;-91
2022/04/09 02:19:53;;;;;;;;;;;;;;;13.33;84.49;97983.81;5041358;28;19920;-92
2022/04/09 02:22:20;;;;;;;;;;;;;;;13.40;84.17;97974.94;5046469;28;20324;-93
2022/04/09 02:24:46;;;;;;;;;;;;;;;13.50;83.24;97982.56;5053994;28;19927;-92
2022/04/09 02:27:12;;;;;;;;;;;;;;;13.60;81.97;97971.91;5051412;28;19947;-92
2022/04/09 02:29:37;;;;;;;;;;;;;;;13.75;80.98;97985.59;5041069;28;19920;-92
2022/04/09 02:32:05;;;;;;;;;;;;;;;13.86;81.06;97985.59;5040580;28;20243;-92
2022/04/09 02:34:31;;;;;;;;;;;;;;;13.92;80.31;97983.53;5047030;28;19920;-93
2022/04/09 02:36:56;;;;;;;;;;;;;;;13.93;81.33;98002.53;5053592;28;19942;-93
2022/04/09 02:39:22;;;;;;;;;;;;;;;13.95;81.46;98039.00;5064787;28;20305;-93
2022/04/09 02:41:51;;;;;;;;;;;;;;;13.98;81.61;98065.13;5041870;28;19927;-92
2022/04/09 02:44:17;;;;;;;;;;;;;;;13.77;87.64;98081.34;5053153;28;19964;-91
2022/04/09 02:46:43;;;;;;;;;;;;;;;13.27;95.62;98099.97;5034705;28;19921;-92
2022/04/09 02:49:09;;;;;;;;;;;;;;;12.40;100.00;98138.72;5031779;28;19949;-91
2022/04/09 02:51:34;;;;;;;;;;;;;;;11.96;100.00;98134.34;5036793;28;19931;-92
2022/04/09 02:54:00;;;;;;;;;;;;;;;11.83;100.00;98125.66;5051923;28;19940;-91
2022/04/09 02:56:27;;;;;;;;;;;;;;;11.48;100.00;98139.69;5050914;28;20293;-92
2022/04/09 02:58:52;;;;;;;;;;;;;;;11.37;100.00;98131.19;5036906;28;20033;-91
2022/04/09 03:01:18;;;;;;;;;;;;;;;11.19;100.00;98123.19;5047999;28;19920;-91
2022/04/09 03:03:44;;;;;;;;;;;;;;;11.03;100.00;98120.97;5033256;28;19927;-91
2022/04/09 03:06:10;;;;;;;;;;;;;;;10.97;100.00;98111.81;5034479;28;19966;-92
2022/04/09 03:08:37;;;;;;;;;;;;;;;10.90;100.00;98081.72;5034929;28;19931;-91
2022/04/09 03:11:03;;;;;;;;;;;;;;;10.89;100.00;98077.41;5038135;28;20305;-91
2022/04/09 03:13:28;;;;;;;;;;;;;;;10.86;100.00;98075.63;5045402;28;19921;-91
2022/04/09 03:15:54;;;;;;;;;;;;;;;10.84;100.00;98064.28;5045772;28;19920;-94
2022/04/09 03:18:20;;;;;;;;;;;;;;;10.84;100.00;98065.00;5038811;28;20370;-94
2022/04/09 03:20:46;;;;;;;;;;;;;;;10.91;100.00;98061.06;5049777;28;19920;-93
2022/04/09 03:23:14;;;;;;;;;;;;;;;10.93;100.00;98048.22;5019282;28;20370;-92
2022/04/09 03:25:45;;;;;;;;;;;;;;;10.97;100.00;98045.25;5037656;28;19920;-91
2022/04/09 03:28:12;;;;;;;;;;;;;;;11.00;100.00;98035.97;5038160;28;20013;-92
2022/04/09 03:30:38;;;;;;;;;;;;;;;11.08;100.00;98035.03;5053995;28;19952;-93
2022/04/09 03:33:06;;;;;;;;;;;;;;;11.08;100.00;98023.91;5036659;28;19964;-93
2022/04/09 03:35:34;;;;;;;;;;;;;;;10.93;100.00;98005.84;5037213;28;19947;-92
2022/04/09 03:38:00;;;;;;;;;;;;;;;11.06;100.00;98026.44;5049693;28;20405;-93
2022/04/09 03:40:36;;;;;;;;;;;;;;;10.97;100.00;98007.16;5050938;28;20440;-92
2022/04/09 03:43:02;;;;;;;;;;;;;;;10.88;100.00;97996.22;5043219;28;20381;-92
2022/04/09 03:45:28;;;;;;;;;;;;;;;10.84;100.00;98008.81;5022285;28;19966;-91
2022/04/09 03:47:54;;;;;;;;;;;;;;;10.81;100.00;97993.13;5034922;28;19968;-91
2022/04/09 03:50:20;;;;;;;;;;;;;;;10.73;100.00;97992.78;5037580;28;20345;-91
2022/04/09 03:52:49;;;;;;;;;;;;;;;10.65;100.00;97988.91;5037597;28;19920;-91
2022/04/09 03:55:15;;;;;;;;;;;;;;;10.63;100.00;97989.41;5040518;28;19927;-92
2022/04/09 03:57:41;;;;;;;;;;;;;;;10.53;100.00;97990.78;5049973;28;19921;-92
2022/04/09 04:00:08;;;;;;;;;;;;;;;10.48;100.00;97982.41;5041198;28;19970;-92
2022/04/09 04:02:39;;;;;;;;;;;;;;;10.44;100.00;97981.84;5056572;28;20285;-93
2022/04/09 04:05:06;;;;;;;;;;;;;;;10.42;100.00;97979.56;5039701;28;20027;-92
2022/04/09 04:07:34;;;;;;;;;;;;;;;10.41;100.00;97977.28;5040119;28;20293;-92
2022/04/09 04:10:03;;;;;;;;;;;;;;;10.48;100.00;97982.41;5057767;28;19929;-91
2022/04/09 04:12:29;;;;;;;;;;;;;;;10.44;100.00;97979.84;5039537;28;19924;-93
2022/04/09 04:14:54;;;;;;;;;;;;;;;10.43;100.00;97980.34;5055284;28;19928;-92
2022/04/09 04:17:20;;;;;;;;;;;;;;;10.40;100.00;97975.75;5037479;28;20377;-92
2022/04/09 04:19:45;;;;;;;;;;;;;;;10.35;100.00;97974.47;5074194;28;19927;-91
2022/04/09 04:22:12;;;;;;;;;;;;;;;10.29;100.00;97973.63;5037907;28;19966;-92
2022/04/09 04:24:39;;;;;;;;;;;;;;;10.26;100.00;97982.91;5039449;28;19928;-92
2022/04/09 04:27:05;;;;;;;;;;;;;;;10.23;100.00;97983.88;5040143;28;19921;-91
2022/04/09 04:29:31;;;;;;;;;;;;;;;10.19;100.00;97984.06;5039634;28;19916;-91
2022/04/09 04:31:57;;;;;;;;;;;;;;;10.08;100.00;97985.88;5066898;28;19925;-90
2022/04/09 04:34:22;;;;;;;;;;;;;;;9.98;100.00;97985.28;5038144;28;19925;-91
2022/04/09 04:36:48;;;;;;;;;;;;;;;10.01;100.00;97984.31;5031811;28;20384;-91
2022/04/09 04:39:16;;;;;;;;;;;;;;;10.04;100.00;97979.78;5070773;28;19920;-92
2022/04/09 04:41:46;;;;;;;;;;;;;;;10.03;100.00;97987.34;5055623;28;19927;-90
2022/04/09 04:44:12;;;;;;;;;;;;;;;10.08;100.00;97988.66;5037804;28;19924;-91
2022/04/09 04:46:43;;;;;;;;;;;;;;;10.11;100.00;97988.44;5043557;28;19920;-90
2022/04/09 04:49:14;;;;;;;;;;;;;;;10.14;100.00;97981.19;5040289;28;19947;-93
2022/04/09 04:51:40;;;;;;;;;;;;;;;10.18;100.00;97982.56;5056453;28;20141;-90
2022/04/09 04:54:06;;;;;;;;;;;;;;;10.21;100.00;97978.81;5072531;28;20406;-92
2022/04/09 04:56:33;;;;;;;;;;;;;;;10.21;100.00;97983.59;5048229;28;20376;-90
2022/04/09 04:59:00;;;;;;;;;;;;;;;10.18;100.00;97971.47;5039982;28;20340;-91
2022/04/09 05:01:26;;;;;;;;;;;;;;;10.24;100.00;97983.38;5017913;28;19920;-91
2022/04/09 05:03:58;;;;;;;;;;;;;;;10.29;100.00;97982.69;5036790;28;19966;-92
2022/04/09 05:06:26;;;;;;;;;;;;;;;10.38;100.00;97989.34;5039461;28;19920;-90
2022/04/09 05:08:53;;;;;;;;;;;;;;;10.42;100.00;98001.75;5035660;28;19976;-91
2022/04/09 05:11:29;;;;;;;;;;;;;;;10.44;100.00;97992.94;5040498;28;19966;-91
2022/04/09 05:13:56;;;;;;;;;;;;;;;10.45;100.00;98000.00;5038421;28;20351;-90
2022/04/09 05:16:22;;;;;;;;;;;;;;;10.48;100.00;98002.56;5051794;28;19966;-90
2022/04/09 05:18:56;;;;;;;;;;;;;;;10.48;100.00;98001.81;5046441;28;19921;-90
2022/04/09 05:21:22;;;;;;;;;;;;;;;10.49;100.00;98006.09;5035125;28;19920;-90
2022/04/09 05:23:49;;;;;;;;;;;;;;;10.52;100.00;98007.91;5046861;28;19924;-89
2022/04/09 05:26:14;;;;;;;;;;;;;;;10.51;100.00;98014.72;5029267;28;19928;-89
2022/04/09 05:28:42;;;;;;;;;;;;;;;10.56;100.00;98016.78;5052679;28;19924;-91
2022/04/09 05:31:09;;;;;;;;;;;;;;;10.52;100.00;98021.75;5035201;28;19921;-90
2022/04/09 05:33:35;;;;;;;;;;;;;;;10.49;100.00;98033.81;5036593;28;20335;-90
2022/04/09 05:36:02;;;;;;;;;;;;;;;10.48;100.00;98032.28;5050596;28;19927;-90
2022/04/09 05:38:29;;;;;;;;;;;;;;;10.52;100.00;98043.94;5050689;28;19921;-91
2022/04/09 05:40:57;;;;;;;;;;;;;;;10.54;100.00;98053.31;5069014;28;19921;-89
2022/04/09 05:43:23;;;;;;;;;;;;;;;10.60;100.00;98045.81;5044711;28;19927;-90
2022/04/09 05:45:52;;;;;;;;;;;;;;;10.72;100.00;98052.25;5021886;28;19921;-91
2022/04/09 05:48:24;;;;;;;;;;;;;;;10.85;100.00;98061.00;5052481;28;20404;-90
2022/04/09 05:50:54;;;;;;;;;;;;;;;10.91;100.00;98056.28;5037692;28;19974;-90
2022/04/09 05:53:21;;;;;;;;;;;;;;;11.01;100.00;98071.53;5052148;28;19971;-90
2022/04/09 05:55:48;;;;;;;;;;;;;;;11.07;100.00;98061.25;5037230;28;20007;-91
2022/04/09 05:58:16;;;;;;;;;;;;;;;11.22;100.00;98064.69;5035821;28;19921;-91
2022/04/09 06:00:44;;;;;;;;;;;;;;;11.31;100.00;98069.34;5036922;28;20293;-90
2022/04/09 06:03:32;;;;;;;;;;;;;;;11.40;100.00;98058.06;5035141;28;20379;-91
2022/04/09 06:05:58;;;;;;;;;;;;;;;11.50;100.00;98076.06;5047868;28;20035;-90
2022/04/09 06:08:35;;;;;;;;;;;;;;;11.56;100.00;98067.81;5036283;28;20023;-92
2022/04/09 06:11:10;;;;;;;;;;;;;;;11.64;100.00;98077.22;5038956;28;19921;-93
2022/04/09 06:13:36;;;;;;;;;;;;;;;11.70;100.00;98083.56;5062841;28;19937;-91
2022/04/09 06:16:06;;;;;;;;;;;;;;;11.75;100.00;98087.69;5033429;28;19994;-92
2022/04/09 06:18:31;;;;;;;;;;;;;;;11.82;100.00;98076.88;5039017;28;19921;-90
2022/04/09 06:20:57;;;;;;;;;;;;;;;11.81;100.00;98100.34;5046532;28;20035;-92
2022/04/09 06:23:22;;;;;;;;;;;;;;;11.78;100.00;98095.78;5020363;28;19936;-90
2022/04/09 06:25:48;;;;;;;;;;;;;;;11.79;100.00;98097.31;5028427;28;19921;-91
2022/04/09 06:28:16;;;;;;;;;;;;;;;11.81;100.00;98099.63;5033828;28;20023;-93
2022/04/09 06:30:44;;;;;;;;;;;;;;;11.78;100.00;98101.34;5045721;28;19956;-92
2022/04/09 06:33:18;;;;;;;;;;;;;;;11.77;100.00;98110.19;5036828;28;20390;-92
2022/04/09 06:35:44;;;;;;;;;;;;;;;11.77;100.00;98110.94;5030915;28;19932;-94
2022/04/09 06:38:15;;;;;;;;;;;;;;;11.76;100.00;98103.09;5033031;28;19928;-93
2022/04/09 06:40:41;;;;;;;;;;;;;;;11.75;100.00;98105.13;5031772;28;19921;-93
2022/04/09 06:43:07;;;;;;;;;;;;;;;11.77;100.00;98116.47;5014793;28;19928;-90
2022/04/09 06:45:55;;;;;;;;;;;;;;;11.74;100.00;98106.38;5042597;28;20013;-93
2022/04/09 06:48:33;;;;;;;;;;;;;;;11.78;100.00;98118.00;5032703;28;20358;-93
2022/04/09 06:51:24;;;;;;;;;;;;;;;11.78;100.00;98115.25;5001312;28;19925;-93
2022/04/09 06:53:54;;;;;;;;;;;;;;;11.74;100.00;98125.03;5028013;28;20294;-93
2022/04/09 06:56:20;;;;;;;;;;;;;;;11.74;100.00;98116.72;5028041;28;19921;-94
2022/04/09 06:58:46;;;;;;;;;;;;;;;11.74;100.00;98117.47;5030448;28;20012;-91
2022/04/09 07:01:12;;;;;;;;;;;;;;;11.75;100.00;98119.00;5045870;28;20358;-92
2022/04/09 07:03:40;;;;;;;;;;;;;;;11.75;100.00;98119.00;4953164;28;1928129;-92
2022/04/09 07:06:06;;;;;;;;;;;;;;;11.78;100.00;98120.03;5064238;28;20309;-89
2022/04/09 07:08:31;;;;;;;;;;;;;;;11.71;100.00;98115.66;5044888;28;19921;-89
2022/04/09 07:10:57;;;;;;;;;;;;;;;11.74;100.00;98128.59;5041329;28;19921;-89
2022/04/09 07:13:22;;;;;;;;;;;;;;;11.78;100.00;98131.13;5048623;28;19974;-89
2022/04/09 07:15:48;;;;;;;;;;;;;;;11.78;100.00;98134.69;5031201;28;19966;-89
2022/04/09 07:18:13;;;;;;;;;;;;;;;11.75;100.00;98146.78;5043137;28;19928;-89
2022/04/09 07:20:40;;;;;;;;;;;;;;;11.81;100.00;98147.59;5047731;28;19921;-88
2022/04/09 07:23:05;;;;;;;;;;;;;;;11.89;100.00;98161.81;5045454;28;19928;-88
2022/04/09 07:25:31;;;;;;;;;;;;;;;11.89;100.00;98204.22;5046943;28;20106;-88
2022/04/09 07:27:56;;;;;;;;;;;;;;;11.70;100.00;98209.31;5026249;28;19976;-88
2022/04/09 07:30:22;;;;;;;;;;;;;;;11.62;100.00;98204.69;5013483;28;20158;-88
2022/04/09 07:32:48;;;;;;;;;;;;;;;11.63;100.00;98217.31;5044623;28;19924;-88
2022/04/09 07:35:16;;;;;;;;;;;;;;;11.69;100.00;98234.78;5028988;28;19920;-88
2022/04/09 07:37:46;;;;;;;;;;;;;;;11.65;100.00;98251.66;5043221;28;19924;-88
2022/04/09 07:40:12;;;;;;;;;;;;;;;11.52;100.00;98239.41;5032594;28;20381;-94
2022/04/09 07:42:38;;;;;;;;;;;;;;;11.42;100.00;98263.00;5017020;28;20306;-94
2022/04/09 07:45:04;;;;;;;;;;;;;;;11.34;100.00;98275.75;5030587;28;19927;-92
2022/04/09 07:47:29;;;;;;;;;;;;;;;11.26;100.00;98285.75;5048074;28;19961;-93
2022/04/09 07:49:55;;;;;;;;;;;;;;;11.17;100.00;98298.50;5047209;28;19946;-93
2022/04/09 07:52:20;;;;;;;;;;;;;;;11.10;100.00;98310.00;5064229;28;19944;-92
2022/04/09 07:54:46;;;;;;;;;;;;;;;11.03;100.00;98327.06;5046812;28;19925;-91
2022/04/09 07:57:11;;;;;;;;;;;;;;;10.93;100.00;98320.06;5044982;28;20298;-91
2022/04/09 07:59:36;;;;;;;;;;;;;;;10.82;100.00;98319.91;5046027;28;20015;-91
2022/04/09 08:02:02;;;;;;;;;;;;;;;10.75;100.00;98345.25;5050208;28;19960;-90
2022/04/09 08:04:27;;;;;;;;;;;;;;;10.61;100.00;98346.00;5068124;28;19921;-89
2022/04/09 08:06:53;;;;;;;;;;;;;;;10.52;100.00;98394.00;5033300;28;19921;-90
2022/04/09 08:09:18;;;;;;;;;;;;;;;10.44;100.00;98430.88;5050924;28;19920;-91
2022/04/09 08:11:44;;;;;;;;;;;;;;;10.31;100.00;98433.94;5050024;28;19921;-89
2022/04/09 08:14:09;;;;;;;;;;;;;;;10.11;100.00;98453.88;5035133;28;19920;-89
2022/04/09 08:16:34;;;;;;;;;;;;;;;9.99;100.00;98460.41;5050443;28;19927;-90
2022/04/09 08:19:02;;;;;;;;;;;;;;;9.89;100.00;98450.63;5069347;28;19927;-89
2022/04/09 08:21:27;;;;;;;;;;;;;;;9.78;100.00;98451.16;5032298;28;19925;-89
2022/04/09 08:23:53;;;;;;;;;;;;;;;9.71;100.00;98459.03;5062761;28;19924;-88
2022/04/09 08:26:18;;;;;;;;;;;;;;;9.66;100.00;98468.00;5034090;28;20035;-87
2022/04/09 08:28:43;;;;;;;;;;;;;;;9.60;100.00;98481.69;5018800;28;19970;-88
2022/04/09 08:31:09;;;;;;;;;;;;;;;9.56;100.00;98496.94;5036829;28;19970;-87
2022/04/09 08:33:34;;;;;;;;;;;;;;;9.51;100.00;98500.34;5018534;28;20437;-86
2022/04/09 08:36:01;;;;;;;;;;;;;;;9.53;100.00;98504.19;5043267;28;19959;-86
2022/04/09 08:38:26;;;;;;;;;;;;;;;9.49;100.00;98516.66;5051161;28;19928;-86
2022/04/09 08:40:52;;;;;;;;;;;;;;;9.48;100.00;98562.94;5051810;28;21384;-86
2022/04/09 08:43:17;;;;;;;;;;;;;;;8.99;100.00;98590.81;5074644;28;20497;-89
2022/04/09 08:45:43;;;;;;;;;;;;;;;8.30;100.00;98610.69;5079149;28;19928;-89
2022/04/09 08:48:09;;;;;;;;;;;;;;;7.94;100.00;98610.50;5061252;28;20043;-88
2022/04/09 08:50:37;;;;;;;;;;;;;;;7.65;100.00;98621.09;5074656;28;19979;-89
2022/04/09 08:53:09;;;;;;;;;;;;;;;7.39;100.00;98642.53;5073058;28;19920;-88
2022/04/09 08:55:35;;;;;;;;;;;;;;;7.29;100.00;98655.50;5056185;28;20010;-88
2022/04/09 08:58:00;;;;;;;;;;;;;;;7.22;100.00;98660.50;5063660;28;19924;-89
2022/04/09 09:00:26;;;;;;;;;;;;;;;7.07;100.00;98667.72;5043474;28;20312;-85
2022/04/09 09:02:55;;;;;;;;;;;;;;;6.86;100.00;98672.75;5078766;28;20511;-86
2022/04/09 09:05:27;;;;;;;;;;;;;;;6.71;100.00;98687.44;5061208;28;19974;-86
2022/04/09 09:07:53;;;;;;;;;;;;;;;6.57;100.00;98672.91;5081279;28;19920;-85
2022/04/09 09:10:19;;;;;;;;;;;;;;;6.55;100.00;98689.09;5069775;28;19935;-84
2022/04/09 09:12:44;;;;;;;;;;;;;;;6.49;100.00;98687.34;5069891;28;20313;-85
2022/04/09 09:15:10;;;;;;;;;;;;;;;6.32;100.00;98683.94;5056595;28;19931;-84
2022/04/09 09:17:36;;;;;;;;;;;;;;;6.21;100.00;98693.75;5073411;28;19916;-85
2022/04/09 09:20:02;;;;;;;;;;;;;;;6.05;100.00;98713.88;5075611;28;19921;-85
2022/04/09 09:22:37;;;;;;;;;;;;;;;5.93;100.00;98733.88;5080238;28;20396;-85
2022/04/09 09:25:02;;;;;;;;;;;;;;;5.86;100.00;98739.56;5071544;28;19921;-85
2022/04/09 09:27:28;;;;;;;;;;;;;;;5.82;100.00;98778.22;5076690;28;19920;-84
2022/04/09 09:29:55;;;;;;;;;;;;;;;5.79;100.00;98778.28;5079599;28;20337;-85
2022/04/09 09:32:25;;;;;;;;;;;;;;;5.74;100.00;98776.84;5072903;28;20332;-85
2022/04/09 09:34:54;;;;;;;;;;;;;;;5.70;100.00;98767.94;5073703;28;19920;-89
2022/04/09 09:37:21;;;;;;;;;;;;;;;5.62;100.00;98778.31;5074945;28;19920;-85
2022/04/09 09:39:46;;;;;;;;;;;;;;;5.61;100.00;98790.56;5059951;28;20530;-85
2022/04/09 09:42:13;;;;;;;;;;;;;;;5.61;100.00;98801.56;5077379;28;19924;-85
2022/04/09 09:44:42;;;;;;;;;;;;;;;5.63;100.00;98804.63;5047496;28;20418;-85
2022/04/09 09:47:08;;;;;;;;;;;;;;;5.63;100.00;98831.38;5058992;28;20290;-85
2022/04/09 09:49:58;;;;;;;;;;;;;;;5.67;100.00;98831.28;5076244;28;19920;-85
2022/04/09 09:52:24;;;;;;;;;;;;;;;5.63;100.00;98858.88;5074961;28;20452;-86
2022/04/09 09:54:55;;;;;;;;;;;;;;;5.61;100.00;98867.59;5077230;28;19932;-85
2022/04/09 09:57:21;;;;;;;;;;;;;;;5.56;100.00;98887.34;5079217;28;19956;-90
2022/04/09 09:59:48;;;;;;;;;;;;;;;5.56;100.00;98892.06;5060575;28;19921;-90
2022/04/09 10:02:14;;;;;;;;;;;;;;;5.54;100.00;98906.25;5052133;28;19931;-91
2022/04/09 10:04:39;;;;;;;;;;;;;;;5.52;100.00;98908.66;5073734;28;19928;-91
2022/04/09 10:07:04;;;;;;;;;;;;;;;5.51;100.00;98918.13;5068443;28;19921;-91
2022/04/09 10:09:30;;;;;;;;;;;;;;;5.51;100.00;98918.13;5070164;28;20383;-91
2022/04/09 10:11:55;;;;;;;;;;;;;;;5.49;100.00;98909.53;5073298;28;20023;-89
2022/04/09 10:14:21;;;;;;;;;;;;;;;5.48;100.00;98935.50;5062560;28;19931;-90
2022/04/09 10:16:48;;;;;;;;;;;;;;;5.48;100.00;98946.50;5060633;28;19924;-84
2022/04/09 10:19:13;;;;;;;;;;;;;;;5.50;100.00;98938.56;5077508;28;20392;-85
2022/04/09 10:21:39;;;;;;;;;;;;;;;5.46;100.00;98959.88;5061680;28;19921;-85
2022/04/09 10:24:05;;;;;;;;;;;;;;;5.47;100.00;98960.66;5077293;28;19920;-85
2022/04/09 10:26:31;;;;;;;;;;;;;;;5.48;100.00;98941.00;5062998;28;19923;-85
2022/04/09 10:29:07;;;;;;;;;;;;;;;5.48;100.00;98959.47;5080053;28;20286;-85
2022/04/09 10:31:33;;;;;;;;;;;;;;;5.47;100.00;98955.94;5078528;28;19925;-85
2022/04/09 10:33:59;;;;;;;;;;;;;;;5.47;100.00;98955.94;5078446;28;19920;-85
2022/04/09 10:36:40;;;;;;;;;;;;;;;5.51;100.00;98962.13;5061473;28;20046;-85
2022/04/09 10:39:22;;;;;;;;;;;;;;;5.51;100.00;98980.59;5054604;28;20413;-85
2022/04/09 10:41:47;;;;;;;;;;;;;;;5.53;98.19;98987.25;5062275;28;19954;-85
2022/04/09 10:44:22;;;;;;;;;;;;;;;5.54;99.77;99021.78;5058375;28;20053;-85
2022/04/09 10:46:47;;;;;;;;;;;;;;;5.54;99.90;99015.53;5061452;28;19928;-84
2022/04/09 10:49:19;;;;;;;;;;;;;;;5.57;100.00;99022.91;5057624;28;19921;-85
2022/04/09 10:52:06;;;;;;;;;;;;;;;5.61;98.44;99004.34;5078849;28;20367;-89
2022/04/09 10:54:32;;;;;;;;;;;;;;;5.66;97.30;99006.59;5077908;28;20047;-85
2022/04/09 10:57:08;;;;;;;;;;;;;;;5.75;100.00;99005.97;5045070;28;19928;-84
2022/04/09 10:59:34;;;;;;;;;;;;;;;5.82;100.00;99019.59;5046287;28;19931;-85
2022/04/09 11:01:59;;;;;;;;;;;;;;;5.83;98.23;99032.13;5076984;28;19936;-84
2022/04/09 11:07:03;;;;;;;;;;;;;;;5.87;99.38;99030.09;5060974;28;19924;-85
2022/04/09 11:09:53;;;;;;;;;;;;;;;5.93;97.92;99031.91;5076886;28;19934;-86
2022/04/09 11:12:20;;;;;;;;;;;;;;;5.93;97.43;99053.94;5076571;28;19920;-92
2022/04/09 11:14:49;;;;;;;;;;;;;;;6.03;99.36;99044.63;5078464;28;19920;-93
2022/04/09 11:17:15;;;;;;;;;;;;;;;6.09;95.72;99044.91;5061441;28;20396;-93
2022/04/09 11:19:42;;;;;;;;;;;;;;;6.13;95.73;99048.34;5078574;28;19967;-93
2022/04/09 11:22:09;;;;;;;;;;;;;;;6.18;94.62;99064.34;5080813;28;19927;-91
2022/04/09 11:24:37;;;;;;;;;;;;;;;6.17;92.91;99079.31;5061219;28;19929;-92
2022/04/09 11:27:03;;;;;;;;;;;;;;;6.22;93.20;99083.53;5055790;28;19921;-90
2022/04/09 11:29:35;;;;;;;;;;;;;;;6.29;94.75;99080.59;5078766;28;19920;-89
2022/04/09 11:32:01;;;;;;;;;;;;;;;6.29;92.39;99070.38;5055832;28;20681;-91
2022/04/09 11:34:26;;;;;;;;;;;;;;;6.33;94.25;99059.25;5076759;28;20426;-90
2022/04/09 11:37:08;;;;;;;;;;;;;;;6.31;93.42;99050.66;5062937;28;19920;-92
2022/04/09 11:39:37;;;;;;;;;;;;;;;6.27;91.60;99061.00;5077951;28;19955;-91
2022/04/09 11:42:02;;;;;;;;;;;;;;;6.28;89.15;99071.56;5076806;28;19923;-90
2022/04/09 11:44:28;;;;;;;;;;;;;;;6.25;90.58;99075.19;5056990;28;20361;-90
2022/04/09 11:46:54;;;;;;;;;;;;;;;6.21;91.78;99076.47;5057923;28;19928;-92
2022/04/09 11:49:19;;;;;;;;;;;;;;;6.24;89.58;99101.16;5075781;28;19920;-88
2022/04/09 11:51:54;;;;;;;;;;;;;;;6.22;89.61;99081.56;5079736;28;19921;-89
2022/04/09 11:54:20;;;;;;;;;;;;;;;6.27;87.48;99111.31;5076787;28;20006;-88
2022/04/09 11:56:45;;;;;;;;;;;;;;;6.30;85.23;99113.25;5079481;28;20010;-90
2022/04/09 11:59:12;;;;;;;;;;;;;;;6.38;86.64;99128.38;5078425;28;20315;-88
2022/04/09 12:01:37;;;;;;;;;;;;;;;6.45;85.03;99133.72;5076634;28;19928;-88
2022/04/09 12:04:03;;;;;;;;;;;;;;;6.49;86.07;99139.13;5053896;28;19921;-92
2022/04/09 12:06:28;;;;;;;;;;;;;;;6.54;85.19;99135.88;5061426;28;19925;-86
2022/04/09 12:08:54;;;;;;;;;;;;;;;6.57;83.50;99130.25;5055482;28;20008;-86
2022/04/09 12:11:20;;;;;;;;;;;;;;;6.62;83.60;99136.47;5057359;28;19928;-89
2022/04/09 12:13:46;;;;;;;;;;;;;;;6.68;85.63;99145.75;5057083;28;19917;-83
2022/04/09 12:16:18;;;;;;;;;;;;;;;6.75;79.54;99138.09;5057098;28;19932;-92
2022/04/09 12:18:44;;;;;;;;;;;;;;;6.81;79.90;99132.81;5061333;28;20006;-95
2022/04/09 12:21:20;;;;;;;;;;;;;;;6.85;81.27;99136.25;5063545;28;19920;-94
2022/04/09 12:23:46;;;;;;;;;;;;;;;6.86;78.10;99130.31;5060428;28;20034;-95
2022/04/09 12:26:21;;;;;;;;;;;;;;;6.95;78.15;99129.69;5070046;28;20338;-84
2022/04/09 12:28:46;;;;;;;;;;;;;;;7.07;79.46;99123.47;5062431;28;19921;-83
2022/04/09 12:31:24;;;;;;;;;;;;;;;7.16;79.82;99114.56;5056819;28;19982;-84
2022/04/09 12:33:59;;;;;;;;;;;;;;;7.37;82.18;99117.47;5060095;28;19928;-84
2022/04/09 12:36:24;;;;;;;;;;;;;;;7.58;79.55;99118.09;5052900;28;19920;-84
2022/04/09 12:38:50;;;;;;;;;;;;;;;7.67;78.29;99118.22;5055035;28;19946;-84
2022/04/09 12:41:15;;;;;;;;;;;;;;;7.70;78.15;99115.34;5060405;28;20374;-84
2022/04/09 12:43:42;;;;;;;;;;;;;;;7.77;77.08;99104.09;5063776;28;20397;-84
2022/04/09 12:46:13;;;;;;;;;;;;;;;7.84;78.69;99086.53;5062336;28;19978;-84
2022/04/09 12:48:45;;;;;;;;;;;;;;;7.96;79.05;99091.31;5059092;28;20008;-84